There are no active watches, warnings or advisories for Caledonia (Vermont).

Nearby METAR Reports

 

KCDA - Lyndonville, Vermont, USA
Distance from station: ENE 11mi, 18km
Updated: Sun, 22-Apr-2018 9:55pm EDT
Clear
Clear
 Wind from W
Wind: W 3 mph , 6 km/h
Temperature: 41°F , 5°C
Dew Point: 18°F , -8°C
Humidity: 39%
Barometer: 30.40 inHg , 1029.5 hPa
Clouds: Clear
Visibility: 10 miles , 16 km
2018/04/23 01:55 KCDA 230155Z AUTO 26003KT 10SM CLR 05/M08 A3040 RMK AO2 T00471081
K1V4 - St. Johnsbury, Vermont, USA
Distance from station: ESE 12mi, 19km
Updated: Sun, 22-Apr-2018 9:54pm EDT

 
Temperature: 37°F , 3°C
Dew Point: 25°F , -4°C
Humidity: 60%
Barometer: 30.38 inHg , 1028.8 hPa
2018/04/23 01:54 K1V4 230154Z AUTO 03/M04 A3038 RMK AO1 SLP293 T00331044
 
KMVL - Morrisville, Vermont, USA
Distance from station: W 20mi, 31km
Updated: Sun, 22-Apr-2018 9:54pm EDT
Clear
Clear
 Wind from SSW
Wind: SSW 5 mph , 7 km/h
Temperature: 30°F , -1°C
Wind Chill: 25°F , -4°C
Dew Point: 23°F , -5°C
Humidity: 75%
Barometer: 30.41 inHg , 1029.8 hPa
Clouds: Clear
Visibility: 10 miles , 16 km
2018/04/23 01:54 KMVL 230154Z AUTO 20004KT 10SM CLR M01/M05 A3041 RMK AO2 SLP305 T10111050
KEFK - Newport State, Vermont, USA
Distance from station: N 26mi, 42km
Updated: Sun, 22-Apr-2018 9:55pm EDT
Clear
Clear
 Wind from SW
Wind: SW 5 mph , 7 km/h
Temperature: 36°F , 2°C
Wind Chill: 32°F , 0°C
Dew Point: 21°F , -6°C
Humidity: 56%
Barometer: 30.39 inHg , 1029.1 hPa
Clouds: Clear
Visibility: 10 miles , 16 km
2018/04/23 01:55 KEFK 230155Z AUTO 22004KT 10SM CLR 02/M06 A3039 RMK AO2 T00241057
 
KMPV - Montpelier/Barre, Vermont, USA
Distance from station: SW 27mi, 44km
Updated: Sun, 22-Apr-2018 9:51pm EDT
Clear
Clear
 Wind from calm
Wind: Calm
Temperature: 34°F , 1°C
Dew Point: 21°F , -6°C
Humidity: 60%
Barometer: 30.42 inHg , 1030.1 hPa
Clouds: Clear
Visibility: 10 miles , 16 km
2018/04/23 01:51 KMPV 230151Z AUTO 00000KT 10SM CLR 01/M06 A3042 RMK AO2 SLP314 T00111061
KHIE - Whitefield, New Hampshire, USA
Distance from station: ESE 34mi, 55km
Updated: Sun, 22-Apr-2018 9:52pm EDT
Clear
Clear
 Wind from calm
Wind: Calm
Temperature: 30°F , -1°C
Dew Point: 21°F , -6°C
Humidity: 69%
Barometer: 30.38 inHg , 1028.8 hPa
Clouds: Clear
Visibility: 10 miles , 16 km
2018/04/23 01:52 KHIE 230152Z AUTO 00000KT 10SM CLR M01/M06 A3038 RMK AO2 SLP301 T10111056
 
KBTV - Burlington, Vermont, USA
Distance from station: W 46mi, 74km
Updated: Sun, 22-Apr-2018 9:54pm EDT
Clear
Clear
 Wind from calm
Wind: Calm
Temperature: 45°F , 7°C
Dew Point: 21°F , -6°C
Humidity: 39%
Barometer: 30.40 inHg , 1029.5 hPa
Clouds: Clear
Visibility: 10 miles , 16 km
2018/04/23 01:54 KBTV 230154Z 00000KT 10SM CLR 07/M06 A3040 RMK AO2 SLP295 T00671061
CWFQ - Frelighsburg, Quebec, Canada
Distance from station: NW 47mi, 75km
Updated: Sun, 22-Apr-2018 9:00pm EDT

 Wind from W
Wind: W 1 mph , 2 km/h
Temperature: 46°F , 8°C
Dew Point: 16°F , -9°C
Humidity: 29%
2018/04/23 01:00 CWFQ 230100Z AUTO 26001KT 08/M09 RMK AO1 SLP287 T00781086 53000
 
KMWN - Mount Washington, New Hampshire, USA
Distance from station: ESE 49mi, 79km
Updated: Sun, 22-Apr-2018 9:53pm EDT
Clear
Clear
 Wind from NW
Wind: NW 33 mph , 54 km/h
Temperature: 19°F , -7°C
Wind Chill: -1°F , -18°C
Dew Point: 12°F , -11°C
Humidity: 73%
Clouds: Clear
Visibility: 110 miles , 176 km
2018/04/23 01:53 KMWN 230153Z 31029KT 110SM SKC M07/M11 RMK
KBML - Berlin, New Hampshire, USA
Distance from station: E 51mi, 83km
Updated: Sun, 22-Apr-2018 9:52pm EDT
Clear
Clear
 Wind from calm
Wind: Calm
Temperature: 30°F , -1°C
Dew Point: 21°F , -6°C
Humidity: 69%
Barometer: 30.37 inHg , 1028.4 hPa
Clouds: Clear
Visibility: 10 miles , 16 km
2018/04/23 01:52 KBML 230152Z AUTO 00000KT 10SM CLR M01/M06 A3037 RMK AO2 SLP296 T10061056 $
 
KFSO - Highgate, Vermont, USA
Distance from station: NW 52mi, 84km
Updated: Sun, 22-Apr-2018 9:55pm EDT
Clear
Clear
 Wind from calm
Wind: Calm
Temperature: 36°F , 2°C
Dew Point: 25°F , -4°C
Humidity: 65%
Barometer: 30.39 inHg , 1029.1 hPa
Clouds: Clear
Visibility: 10 miles , 16 km
2018/04/23 01:55 KFSO 230155Z AUTO 00000KT 10SM CLR 02/M04 A3039 RMK AO2 T00211042
CWTT - Lac Memphremagog, Quebec, Canada
Distance from station: N 53mi, 85km
Updated: Sun, 22-Apr-2018 8:00pm EDT
NOT Current

 Wind from WNW
Wind: WNW 1 mph , 2 km/h
Temperature: 43°F , 6°C
Dew Point: 21°F , -6°C
Humidity: 42%
2018/04/23 00:00 CWTT 230000Z AUTO 30001KT 06/M06 RMK AO1 T00551064
 
K1P1 - Plymouth, New Hampshire, USA
Distance from station: SSE 55mi, 88km
Updated: Sun, 22-Apr-2018 9:55pm EDT
Clear
Clear
 
Temperature: 37°F , 3°C
Dew Point: 25°F , -4°C
Humidity: 60%
Barometer: 30.39 inHg , 1029.1 hPa
Clouds: Clear
Visibility: 10 miles , 16 km
2018/04/23 01:55 K1P1 230155Z AUTO 10SM CLR 03/M04 A3039 RMK AO2 T00251041
KLEB - Lebanon, New Hampshire, USA
Distance from station: S 60mi, 97km
Updated: Sun, 22-Apr-2018 9:53pm EDT
Clear
Clear
 Wind from S
Wind: S 3 mph , 6 km/h
Temperature: 34°F , 1°C
Dew Point: 23°F , -5°C
Humidity: 65%
Barometer: 30.39 inHg , 1029.1 hPa
Clouds: Clear
Visibility: 10 miles , 16 km
2018/04/23 01:53 KLEB 230153Z 17003KT 10SM CLR 01/M05 A3039 RMK AO2 SLP294 T00111050
 
KPBG - Plattsburgh Afb, New York, USA
Distance from station: W 62mi, 100km
Updated: Sun, 22-Apr-2018 9:53pm EDT
Clear
Clear
 Wind from calm
Wind: Calm
Temperature: 39°F , 4°C
Dew Point: 25°F , -4°C
Humidity: 56%
Barometer: 30.40 inHg , 1029.5 hPa
Clouds: Clear
Visibility: 10 miles , 16 km
2018/04/23 01:53 KPBG 230153Z AUTO 00000KT 10SM CLR 04/M04 A3040 RMK AO2 SLP295 T00391039
CWQH - Lennoxville, Quebec, Canada
Distance from station: NNE 63mi, 101km
Updated: Sun, 22-Apr-2018 9:00pm EDT

 Wind from calm
Wind: Calm
Temperature: 36°F , 2°C
Dew Point: 27°F , -3°C
Humidity: 70%
2018/04/23 01:00 CWQH 230100Z AUTO 00000KT 02/M03 RMK AO1 T00201027
 
CMGB - Granby, Quebec, Canada
Distance from station: NNW 65mi, 105km
Updated: Sun, 22-Apr-2018 9:45pm EDT

 Wind from S
Wind: S 1 mph , 2 km/h
Temperature: 37°F , 3°C
Dew Point: 23°F , -5°C
Humidity: 56%
2018/04/23 01:45 CMGB 230145Z AUTO 19001KT 03/M05 RMK AO1 SLP286 T00281049 53000
CYSC - Sherbrooke, Quebec, Canada
Distance from station: NNE 69mi, 112km
Updated: Sun, 22-Apr-2018 9:00pm EDT

 Wind from calm
Wind: Calm
Temperature: 36°F , 2°C
Dew Point: 19°F , -7°C
Humidity: 52%
Barometer: 30.36 inHg , 1028.1 hPa
Visibility: 9 miles , 14 km
2018/04/23 01:00 CYSC 230100Z AUTO 00000KT 9SM 02/M07 A3036 RMK CLD MISG PCPN MISG SLP293
 
KIZG - Fryeburg, Maine, USA
Distance from station: ESE 72mi, 117km
Updated: Sun, 22-Apr-2018 9:54pm EDT
Clear
Clear
 Wind from calm
Wind: Calm
Temperature: 34°F , 1°C
Dew Point: 23°F , -5°C
Humidity: 65%
Barometer: 30.38 inHg , 1028.8 hPa
Clouds: Clear
Visibility: 10 miles , 16 km
2018/04/23 01:54 KIZG 230154Z AUTO 00000KT 10SM CLR 01/M05 A3038 RMK AO2 SLP293 T00111050